Nearby METAR Reports

 

KALB - Albany, New York, USA
Distance from station: E 47mi, 75km
Updated: Fri, 25-Sep-2020 11:51am EDT
Few Clouds
Few Clouds
 Wind from calm
Wind: Calm
Temperature: 70°F , 21°C
Dew Point: 57°F , 14°C
Humidity: 64%
Barometer: 30.11 inHg , 1019.6 hPa
Clouds: Few Clouds
Visibility: 10 miles , 16 km
Cloud details: Few Clouds 4000 ft
2020/09/25 15:51 KALB 251551Z 00000KT 10SM FEW040 21/14 A3011 RMK AO2 SLP196 T02060144
KSLK - Saranac Lake, New York, USA
Distance from station: N 110mi, 177km
Updated: Fri, 25-Sep-2020 11:51am EDT
Clear
Clear
 Wind from WSW
Wind: WSW 9 mph , 15 km/h
Temperature: 68°F , 20°C
Dew Point: 55°F , 13°C
Humidity: 64%
Barometer: 30.10 inHg , 1019.3 hPa
Clouds: Clear
Visibility: 10 miles , 16 km
2020/09/25 15:51 KSLK 251551Z AUTO 24008KT 10SM CLR 20/13 A3010 RMK AO2 SLP194 T02000133
 
KSYR - Syracuse, New York, USA
Distance from station: W 73mi, 117km
Updated: Fri, 25-Sep-2020 11:54am EDT
Few Clouds
Few Clouds
 Wind from calm
Wind: Calm
Temperature: 75°F , 24°C
Dew Point: 55°F , 13°C
Humidity: 50%
Barometer: 30.09 inHg , 1019 hPa
Clouds: Few Clouds
Visibility: 10 miles , 16 km
Cloud details: Few Clouds 25000 ft
2020/09/25 15:54 KSYR 251554Z 00000KT 10SM FEW250 24/13 A3009 RMK AO2 SLP183 T02390133
KBGM - Binghamton, New York, USA
Distance from station: SW 78mi, 126km
Updated: Fri, 25-Sep-2020 11:53am EDT
Clear
Clear
 Wind from S
Wind: S 6 mph , 9 km/h
Temperature: 70°F , 21°C
Dew Point: 57°F , 14°C
Humidity: 64%
Barometer: 30.13 inHg , 1020.3 hPa
Clouds: Clear
Visibility: 10 miles , 16 km
2020/09/25 15:53 KBGM 251553Z 17005KT 10SM CLR 21/14 A3013 RMK AO2 SLP198 T02110139
 
KRME - Rome, New York, USA
Distance from station: WNW 43mi, 69km
Updated: Fri, 25-Sep-2020 11:53am EDT
Clear
Clear
 Wind from varies
Wind: varies 3 mph , 6 km/h
Temperature: 73°F , 23°C
Dew Point: 57°F , 14°C
Humidity: 57%
Barometer: 30.10 inHg , 1019.3 hPa
Clouds: Clear
Visibility: 10 miles , 16 km
2020/09/25 15:53 KRME 251553Z VRB03KT 10SM CLR 23/14 A3010 RMK AO2 SLP188 T02330139
KJFK - New York, New York, USA
Distance from station: SSE 159mi, 256km
Updated: Fri, 25-Sep-2020 11:51am EDT
Mostly cloudy
Mostly cloudy
 Wind from SSW
Wind: SSW 6 mph , 9 km/h
Temperature: 73°F , 23°C
Dew Point: 61°F , 16°C
Humidity: 65%
Barometer: 30.13 inHg , 1020.3 hPa
Clouds: Mostly cloudy
Visibility: 7 miles , 11 km
Cloud details: Mostly cloudy 27000 ft
2020/09/25 15:51 KJFK 251551Z 21005KT 7SM BKN270 23/16 A3013 RMK AO2 SLP202 T02280161
 
KROC - Rochester, New York, USA
Distance from station: W 150mi, 242km
Updated: Fri, 25-Sep-2020 11:54am EDT
Few Clouds
Few Clouds
 Wind from varies
Wind: varies 5 mph , 7 km/h
Temperature: 73°F , 23°C
Dew Point: 55°F , 13°C
Humidity: 53%
Barometer: 30.09 inHg , 1019 hPa
Clouds: Few Clouds
Visibility: 10 miles , 16 km
Cloud details: Few Clouds 8000 ft
2020/09/25 15:54 KROC 251554Z VRB04KT 10SM FEW080 23/13 A3009 RMK AO2 SLP189 T02330133 $
KART - Watertown, New York, USA
Distance from station: NNW 103mi, 166km
Updated: Fri, 25-Sep-2020 10:56am EDT
Clear
Clear
 Wind from W
Wind: W 5 mph , 7 km/h
Temperature: 70°F , 21°C
Dew Point: 59°F , 15°C
Humidity: 69%
Barometer: 30.08 inHg , 1018.6 hPa
Clouds: Clear
Visibility: 10 miles , 16 km
2020/09/25 14:56 KART 251456Z AUTO 27004KT 10SM CLR 21/15 A3008 RMK AO2 SLP184 T02110150 50008 $
 
KELM - Elmira-Corning, New York, USA
Distance from station: SSW 121mi, 195km
Updated: Fri, 25-Sep-2020 11:53am EDT
Clear
Clear
 Wind from calm
Wind: Calm
Temperature: 75°F , 24°C
Dew Point: 57°F , 14°C
Humidity: 54%
Barometer: 30.10 inHg , 1019.3 hPa
Clouds: Clear
Visibility: 10 miles , 16 km
2020/09/25 15:53 KELM 251553Z 00000KT 10SM CLR 24/14 A3010 RMK AO2 SLP188 T02440139
KJHW - Jamestown, New York, USA
Distance from station: SW 238mi, 383km
Updated: Fri, 25-Sep-2020 11:56am EDT
Clear
Clear
 Wind from SSW
Wind: SSW 6 mph , 9 km/h
Temperature: 70°F , 21°C
Dew Point: 55°F , 13°C
Humidity: 60%
Barometer: 30.13 inHg , 1020.3 hPa
Clouds: Clear
Visibility: 10 miles , 16 km
2020/09/25 15:56 KJHW 251556Z AUTO 20005KT 10SM CLR 21/13 A3013 RMK AO2 SLP201 T02060133
 
KMSS - Massena, New York, USA
Distance from station: N 141mi, 232km
Updated: Fri, 25-Sep-2020 11:53am EDT
Mostly cloudy
Mostly cloudy
 Wind from ENE
Wind: ENE 10 mph , 17 km/h
Temperature: 57°F , 14°C
Dew Point: 41°F , 5°C
Humidity: 55%
Barometer: 30.13 inHg , 1020.3 hPa
Clouds: Mostly cloudy
Visibility: 10 miles , 16 km
Cloud details: Few Clouds 8000 ft
Mostly cloudy 12000 ft
2020/09/25 15:53 KMSS 251553Z AUTO 06009KT 10SM FEW080 BKN120 14/05 A3013 RMK AO2 SLP203 T01390050
KBUF - Buffalo, New York, USA
Distance from station: W 204mi, 328km
Updated: Fri, 25-Sep-2020 11:54am EDT
Clear
Clear
 Wind from varies
Wind: varies 3 mph , 6 km/h
Temperature: 73°F , 23°C
Dew Point: 54°F , 12°C
Humidity: 50%
Barometer: 30.08 inHg , 1018.6 hPa
Clouds: Clear
Visibility: 10 miles , 16 km
2020/09/25 15:54 KBUF 251554Z VRB03KT 10SM CLR 23/12 A3008 RMK AO2 SLP185 T02330122